sensor_id;sensor_type;location;lat;lon;timestamp;noise_LAeq;noise_LA_min;noise_LA_max;noise_LA01;noise_LA95
70077;Laerm;57448;51.490;5.436;2022-07-12T00:00:04;37.35;35.98;38.36;;
70077;Laerm;57448;51.490;5.436;2022-07-12T00:00:10;37.26;36.18;38.22;;
70077;Laerm;57448;51.490;5.436;2022-07-12T00:00:16;37.69;36.47;39.61;;
70077;Laerm;57448;51.490;5.436;2022-07-12T00:00:21;37.62;36.18;39.32;;
70077;Laerm;57448;51.490;5.436;2022-07-12T00:00:27;37.76;36.64;39.36;;
70077;Laerm;57448;51.490;5.436;2022-07-12T00:00:33;38.38;36.82;40.05;;
70077;Laerm;57448;51.490;5.436;2022-07-12T00:00:38;37.87;36.55;39.19;;
70077;Laerm;57448;51.490;5.436;2022-07-12T00:00:44;37.68;36.29;38.88;;
70077;Laerm;57448;51.490;5.436;2022-07-12T00:00:49;37.87;36.19;39.38;;
70077;Laerm;57448;51.490;5.436;2022-07-12T00:00:55;37.59;36.45;38.78;;
70077;Laerm;57448;51.490;5.436;2022-07-12T00:01:00;37.10;35.77;38.23;;
70077;Laerm;57448;51.490;5.436;2022-07-12T00:01:07;37.03;35.73;37.94;;
70077;Laerm;57448;51.490;5.436;2022-07-12T00:01:13;37.13;35.85;38.98;;
70077;Laerm;57448;51.490;5.436;2022-07-12T00:01:18;37.39;35.91;39.93;;
70077;Laerm;57448;51.490;5.436;2022-07-12T00:01:24;37.20;35.97;38.36;;
70077;Laerm;57448;51.490;5.436;2022-07-12T00:01:29;37.55;36.20;39.07;;
70077;Laerm;57448;51.490;5.436;2022-07-12T00:01:34;38.12;36.08;39.99;;
70077;Laerm;57448;51.490;5.436;2022-07-12T00:01:40;38.07;36.88;39.25;;
70077;Laerm;57448;51.490;5.436;2022-07-12T00:01:45;38.49;36.81;40.15;;
70077;Laerm;57448;51.490;5.436;2022-07-12T00:01:51;37.70;36.05;39.66;;
70077;Laerm;57448;51.490;5.436;2022-07-12T00:01:56;37.53;35.93;39.49;;
70077;Laerm;57448;51.490;5.436;2022-07-12T00:02:02;37.36;36.05;38.51;;
70077;Laerm;57448;51.490;5.436;2022-07-12T00:02:07;37.25;36.11;38.57;;
70077;Laerm;57448;51.490;5.436;2022-07-12T00:02:13;37.47;36.26;38.49;;
70077;Laerm;57448;51.490;5.436;2022-07-12T00:02:18;37.35;36.01;38.84;;
70077;Laerm;57448;51.490;5.436;2022-07-12T00:02:24;37.09;35.91;38.60;;
70077;Laerm;57448;51.490;5.436;2022-07-12T00:02:30;37.28;35.78;38.70;;
70077;Laerm;57448;51.490;5.436;2022-07-12T00:02:35;37.55;36.66;38.67;;
70077;Laerm;57448;51.490;5.436;2022-07-12T00:02:41;37.40;36.18;38.66;;
70077;Laerm;57448;51.490;5.436;2022-07-12T00:02:46;37.47;35.75;38.71;;
70077;Laerm;57448;51.490;5.436;2022-07-12T00:02:51;37.38;36.17;38.89;;
70077;Laerm;57448;51.490;5.436;2022-07-12T00:02:57;37.91;36.83;39.52;;
70077;Laerm;57448;51.490;5.436;2022-07-12T00:03:02;38.03;36.35;39.68;;
70077;Laerm;57448;51.490;5.436;2022-07-12T00:03:08;37.57;36.58;38.75;;
70077;Laerm;57448;51.490;5.436;2022-07-12T00:03:13;37.51;36.34;38.46;;
70077;Laerm;57448;51.490;5.436;2022-07-12T00:03:19;37.43;36.53;38.76;;
70077;Laerm;57448;51.490;5.436;2022-07-12T00:03:25;37.82;36.59;38.87;;
70077;Laerm;57448;51.490;5.436;2022-07-12T00:03:30;38.28;37.08;41.51;;
70077;Laerm;57448;51.490;5.436;2022-07-12T00:03:36;37.77;36.44;38.79;;
70077;Laerm;57448;51.490;5.436;2022-07-12T00:03:41;38.37;36.92;39.50;;
70077;Laerm;57448;51.490;5.436;2022-07-12T00:03:47;38.48;37.08;39.81;;
70077;Laerm;57448;51.490;5.436;2022-07-12T00:03:52;38.59;37.31;40.08;;
70077;Laerm;57448;51.490;5.436;2022-07-12T00:03:58;38.46;36.57;40.41;;
70077;Laerm;57448;51.490;5.436;2022-07-12T00:04:04;38.24;36.57;39.72;;
70077;Laerm;57448;51.490;5.436;2022-07-12T00:04:09;37.60;36.37;38.62;;
70077;Laerm;57448;51.490;5.436;2022-07-12T00:04:15;37.93;36.52;39.38;;
70077;Laerm;57448;51.490;5.436;2022-07-12T00:04:20;37.93;36.43;39.25;;
70077;Laerm;57448;51.490;5.436;2022-07-12T00:04:26;37.60;36.46;38.65;;
70077;Laerm;57448;51.490;5.436;2022-07-12T00:04:31;37.94;36.47;39.18;;
70077;Laerm;57448;51.490;5.436;2022-07-12T00:04:37;37.74;36.42;38.81;;
70077;Laerm;57448;51.490;5.436;2022-07-12T00:04:42;37.39;36.15;38.61;;
70077;Laerm;57448;51.490;5.436;2022-07-12T00:04:48;37.28;36.01;38.40;;
70077;Laerm;57448;51.490;5.436;2022-07-12T00:04:53;38.02;36.58;39.41;;
70077;Laerm;57448;51.490;5.436;2022-07-12T00:04:58;38.22;36.66;39.78;;
70077;Laerm;57448;51.490;5.436;2022-07-12T00:05:04;37.41;35.76;38.97;;
70077;Laerm;57448;51.490;5.436;2022-07-12T00:05:11;37.36;36.17;38.52;;
70077;Laerm;57448;51.490;5.436;2022-07-12T00:05:16;37.60;36.07;38.46;;
70077;Laerm;57448;51.490;5.436;2022-07-12T00:05:21;37.46;36.38;38.68;;
70077;Laerm;57448;51.490;5.436;2022-07-12T00:05:27;37.17;36.05;38.19;;
70077;Laerm;57448;51.490;5.436;2022-07-12T00:05:32;37.35;36.06;38.31;;
70077;Laerm;57448;51.490;5.436;2022-07-12T00:05:37;37.97;36.31;39.70;;
70077;Laerm;57448;51.490;5.436;2022-07-12T00:05:43;37.93;36.78;39.20;;
70077;Laerm;57448;51.490;5.436;2022-07-12T00:05:48;37.84;36.67;39.09;;
70077;Laerm;57448;51.490;5.436;2022-07-12T00:05:54;37.78;36.44;39.00;;
70077;Laerm;57448;51.490;5.436;2022-07-12T00:05:59;37.50;36.28;39.25;;
70077;Laerm;57448;51.490;5.436;2022-07-12T00:06:05;37.78;35.86;39.03;;
70077;Laerm;57448;51.490;5.436;2022-07-12T00:06:10;37.83;36.73;44.38;;
70077;Laerm;57448;51.490;5.436;2022-07-12T00:06:16;37.98;36.75;38.99;;
70077;Laerm;57448;51.490;5.436;2022-07-12T00:06:22;37.90;36.67;39.28;;
70077;Laerm;57448;51.490;5.436;2022-07-12T00:06:27;37.84;36.63;39.33;;
70077;Laerm;57448;51.490;5.436;2022-07-12T00:06:33;38.01;36.61;39.15;;
70077;Laerm;57448;51.490;5.436;2022-07-12T00:06:38;38.15;37.11;39.42;;
70077;Laerm;57448;51.490;5.436;2022-07-12T00:06:43;38.33;36.93;39.44;;
70077;Laerm;57448;51.490;5.436;2022-07-12T00:06:49;38.24;36.81;39.71;;
70077;Laerm;57448;51.490;5.436;2022-07-12T00:06:54;38.40;37.06;39.49;;
70077;Laerm;57448;51.490;5.436;2022-07-12T00:07:01;38.99;36.96;41.55;;
70077;Laerm;57448;51.490;5.436;2022-07-12T00:07:06;38.94;37.46;40.42;;
70077;Laerm;57448;51.490;5.436;2022-07-12T00:07:12;38.77;37.67;39.93;;
70077;Laerm;57448;51.490;5.436;2022-07-12T00:07:17;38.73;37.00;39.98;;
70077;Laerm;57448;51.490;5.436;2022-07-12T00:07:23;38.36;37.31;40.47;;
70077;Laerm;57448;51.490;5.436;2022-07-12T00:07:28;38.38;37.34;39.58;;
70077;Laerm;57448;51.490;5.436;2022-07-12T00:07:34;38.47;37.32;39.77;;
70077;Laerm;57448;51.490;5.436;2022-07-12T00:07:39;38.78;37.10;40.79;;
70077;Laerm;57448;51.490;5.436;2022-07-12T00:07:44;39.21;37.78;40.63;;
70077;Laerm;57448;51.490;5.436;2022-07-12T00:07:50;40.30;37.72;45.41;;
70077;Laerm;57448;51.490;5.436;2022-07-12T00:07:55;38.19;36.83;39.60;;
70077;Laerm;57448;51.490;5.436;2022-07-12T00:08:01;38.25;36.89;44.42;;
70077;Laerm;57448;51.490;5.436;2022-07-12T00:08:06;37.92;36.33;39.07;;
70077;Laerm;57448;51.490;5.436;2022-07-12T00:08:11;38.05;36.60;39.33;;
70077;Laerm;57448;51.490;5.436;2022-07-12T00:08:18;38.18;36.73;40.60;;
70077;Laerm;57448;51.490;5.436;2022-07-12T00:08:24;37.81;36.55;38.88;;
70077;Laerm;57448;51.490;5.436;2022-07-12T00:08:29;38.01;36.76;39.39;;
70077;Laerm;57448;51.490;5.436;2022-07-12T00:08:35;38.13;36.85;39.37;;
70077;Laerm;57448;51.490;5.436;2022-07-12T00:08:40;37.72;36.55;38.88;;
70077;Laerm;57448;51.490;5.436;2022-07-12T00:08:45;37.64;36.65;38.70;;
70077;Laerm;57448;51.490;5.436;2022-07-12T00:08:51;37.92;36.40;39.17;;
70077;Laerm;57448;51.490;5.436;2022-07-12T00:08:56;37.95;36.51;39.17;;
70077;Laerm;57448;51.490;5.436;2022-07-12T00:09:02;38.27;37.11;39.56;;
70077;Laerm;57448;51.490;5.436;2022-07-12T00:09:07;38.27;36.53;39.55;;
70077;Laerm;57448;51.490;5.436;2022-07-12T00:09:12;38.53;37.13;39.93;;
70077;Laerm;57448;51.490;5.436;2022-07-12T00:09:18;38.64;37.21;46.35;;
70077;Laerm;57448;51.490;5.436;2022-07-12T00:09:23;38.39;37.01;39.69;;
70077;Laerm;57448;51.490;5.436;2022-07-12T00:09:29;38.28;36.88;39.57;;
70077;Laerm;57448;51.490;5.436;2022-07-12T00:09:34;37.82;36.01;38.98;;
70077;Laerm;57448;51.490;5.436;2022-07-12T00:09:40;37.61;36.42;38.54;;
70077;Laerm;57448;51.490;5.436;2022-07-12T00:09:45;37.78;36.61;39.06;;
70077;Laerm;57448;51.490;5.436;2022-07-12T00:09:50;37.89;36.76;39.24;;
70077;Laerm;57448;51.490;5.436;2022-07-12T00:09:56;37.90;36.25;38.92;;
70077;Laerm;57448;51.490;5.436;2022-07-12T00:10:03;38.03;36.26;39.38;;
70077;Laerm;57448;51.490;5.436;2022-07-12T00:10:08;38.32;37.17;39.54;;
70077;Laerm;57448;51.490;5.436;2022-07-12T00:10:14;38.58;36.76;40.30;;
70077;Laerm;57448;51.490;5.436;2022-07-12T00:10:19;38.12;36.73;39.25;;
70077;Laerm;57448;51.490;5.436;2022-07-12T00:10:25;37.98;36.99;39.11;;
70077;Laerm;57448;51.490;5.436;2022-07-12T00:10:30;37.90;36.57;39.19;;
70077;Laerm;57448;51.490;5.436;2022-07-12T00:10:35;37.94;36.76;39.22;;
70077;Laerm;57448;51.490;5.436;2022-07-12T00:10:41;38.12;36.97;39.42;;
70077;Laerm;57448;51.490;5.436;2022-07-12T00:10:46;38.46;37.24;39.71;;
70077;Laerm;57448;51.490;5.436;2022-07-12T00:10:52;38.47;36.98;39.60;;
70077;Laerm;57448;51.490;5.436;2022-07-12T00:10:57;38.09;36.97;39.08;;
70077;Laerm;57448;51.490;5.436;2022-07-12T00:11:03;38.20;37.16;39.51;;
70077;Laerm;57448;51.490;5.436;2022-07-12T00:11:09;38.17;37.12;39.23;;
70077;Laerm;57448;51.490;5.436;2022-07-12T00:11:15;37.97;36.50;39.32;;
70077;Laerm;57448;51.490;5.436;2022-07-12T00:11:20;38.88;37.40;40.37;;
70077;Laerm;57448;51.490;5.436;2022-07-12T00:11:26;38.24;37.08;39.79;;
70077;Laerm;57448;51.490;5.436;2022-07-12T00:11:31;38.60;37.18;40.04;;
70077;Laerm;57448;51.490;5.436;2022-07-12T00:11:37;37.95;36.36;39.52;;
70077;Laerm;57448;51.490;5.436;2022-07-12T00:11:43;38.03;36.60;39.17;;
70077;Laerm;57448;51.490;5.436;2022-07-12T00:11:48;38.17;36.65;39.53;;
70077;Laerm;57448;51.490;5.436;2022-07-12T00:11:54;38.37;36.99;39.76;;
70077;Laerm;57448;51.490;5.436;2022-07-12T00:12:00;38.23;37.03;40.00;;
70077;Laerm;57448;51.490;5.436;2022-07-12T00:12:05;38.46;37.14;39.97;;
70077;Laerm;57448;51.490;5.436;2022-07-12T00:12:11;37.72;36.39;39.51;;
70077;Laerm;57448;51.490;5.436;2022-07-12T00:12:16;38.16;36.82;40.21;;
70077;Laerm;57448;51.490;5.436;2022-07-12T00:12:22;38.18;36.68;39.46;;
70077;Laerm;57448;51.490;5.436;2022-07-12T00:12:27;38.54;36.79;40.51;;
70077;Laerm;57448;51.490;5.436;2022-07-12T00:12:33;38.34;36.97;39.35;;
70077;Laerm;57448;51.490;5.436;2022-07-12T00:12:38;38.45;37.10;39.65;;
70077;Laerm;57448;51.490;5.436;2022-07-12T00:12:44;38.42;36.31;40.38;;
70077;Laerm;57448;51.490;5.436;2022-07-12T00:12:49;38.25;37.18;39.57;;
70077;Laerm;57448;51.490;5.436;2022-07-12T00:12:55;38.55;37.04;41.33;;
70077;Laerm;57448;51.490;5.436;2022-07-12T00:13:00;38.61;37.36;41.25;;
70077;Laerm;57448;51.490;5.436;2022-07-12T00:13:07;38.78;37.36;40.43;;
70077;Laerm;57448;51.490;5.436;2022-07-12T00:13:12;39.12;37.28;43.12;;
70077;Laerm;57448;51.490;5.436;2022-07-12T00:13:18;38.88;37.31;41.57;;
70077;Laerm;57448;51.490;5.436;2022-07-12T00:13:23;39.21;37.65;41.75;;
70077;Laerm;57448;51.490;5.436;2022-07-12T00:13:29;38.93;36.99;40.77;;
70077;Laerm;57448;51.490;5.436;2022-07-12T00:13:35;38.75;36.78;41.20;;
70077;Laerm;57448;51.490;5.436;2022-07-12T00:13:40;38.08;36.63;39.93;;
70077;Laerm;57448;51.490;5.436;2022-07-12T00:13:45;38.45;36.74;40.55;;
70077;Laerm;57448;51.490;5.436;2022-07-12T00:13:51;38.36;36.51;39.94;;
70077;Laerm;57448;51.490;5.436;2022-07-12T00:13:56;38.44;36.87;40.58;;
70077;Laerm;57448;51.490;5.436;2022-07-12T00:14:02;38.37;36.41;40.15;;
70077;Laerm;57448;51.490;5.436;2022-07-12T00:14:08;38.29;36.70;39.96;;
70077;Laerm;57448;51.490;5.436;2022-07-12T00:14:14;37.97;36.68;39.47;;
70077;Laerm;57448;51.490;5.436;2022-07-12T00:14:20;37.89;36.42;39.98;;
70077;Laerm;57448;51.490;5.436;2022-07-12T00:14:25;37.85;36.29;39.10;;
70077;Laerm;57448;51.490;5.436;2022-07-12T00:14:31;38.49;35.92;41.46;;
70077;Laerm;57448;51.490;5.436;2022-07-12T00:14:36;37.82;36.39;39.86;;
70077;Laerm;57448;51.490;5.436;2022-07-12T00:14:42;37.51;36.39;38.71;;
70077;Laerm;57448;51.490;5.436;2022-07-12T00:14:48;37.57;36.43;38.50;;
70077;Laerm;57448;51.490;5.436;2022-07-12T00:14:54;37.68;36.37;39.18;;
70077;Laerm;57448;51.490;5.436;2022-07-12T00:14:59;37.58;36.35;38.55;;
70077;Laerm;57448;51.490;5.436;2022-07-12T00:15:05;37.62;36.04;39.21;;
70077;Laerm;57448;51.490;5.436;2022-07-12T00:15:11;38.11;36.34;39.78;;
70077;Laerm;57448;51.490;5.436;2022-07-12T00:15:17;38.11;36.75;39.50;;
70077;Laerm;57448;51.490;5.436;2022-07-12T00:15:22;37.89;36.34;39.11;;
70077;Laerm;57448;51.490;5.436;2022-07-12T00:15:27;37.77;36.34;39.54;;
70077;Laerm;57448;51.490;5.436;2022-07-12T00:15:33;37.72;36.38;38.82;;
70077;Laerm;57448;51.490;5.436;2022-07-12T00:15:38;37.53;36.04;38.95;;
70077;Laerm;57448;51.490;5.436;2022-07-12T00:15:44;37.81;36.55;39.13;;
70077;Laerm;57448;51.490;5.436;2022-07-12T00:15:49;37.96;36.63;39.14;;
70077;Laerm;57448;51.490;5.436;2022-07-12T00:15:54;38.03;37.03;39.23;;
70077;Laerm;57448;51.490;5.436;2022-07-12T00:16:00;38.24;36.56;39.91;;
70077;Laerm;57448;51.490;5.436;2022-07-12T00:16:06;38.00;36.85;39.18;;
70077;Laerm;57448;51.490;5.436;2022-07-12T00:16:12;38.80;37.81;39.89;;
70077;Laerm;57448;51.490;5.436;2022-07-12T00:16:19;38.86;37.33;40.23;;
70077;Laerm;57448;51.490;5.436;2022-07-12T00:16:24;38.60;37.17;39.73;;
70077;Laerm;57448;51.490;5.436;2022-07-12T00:16:29;38.01;36.73;39.08;;
70077;Laerm;57448;51.490;5.436;2022-07-12T00:16:35;37.89;36.92;38.87;;
70077;Laerm;57448;51.490;5.436;2022-07-12T00:16:40;37.91;36.76;38.87;;
70077;Laerm;57448;51.490;5.436;2022-07-12T00:16:46;38.83;37.33;40.32;;
70077;Laerm;57448;51.490;5.436;2022-07-12T00:16:51;37.65;36.40;38.87;;
70077;Laerm;57448;51.490;5.436;2022-07-12T00:16:57;38.30;37.02;39.73;;
70077;Laerm;57448;51.490;5.436;2022-07-12T00:17:02;38.64;36.85;40.81;;
70077;Laerm;57448;51.490;5.436;2022-07-12T00:17:09;38.84;37.01;40.80;;
70077;Laerm;57448;51.490;5.436;2022-07-12T00:17:15;38.74;37.12;40.42;;
70077;Laerm;57448;51.490;5.436;2022-07-12T00:17:21;38.14;36.71;39.73;;
70077;Laerm;57448;51.490;5.436;2022-07-12T00:17:26;37.68;36.33;39.32;;
70077;Laerm;57448;51.490;5.436;2022-07-12T00:17:31;37.34;36.40;38.30;;
70077;Laerm;57448;51.490;5.436;2022-07-12T00:17:38;37.36;35.82;38.62;;
70077;Laerm;57448;51.490;5.436;2022-07-12T00:17:43;37.53;36.38;39.16;;
70077;Laerm;57448;51.490;5.436;2022-07-12T00:17:48;37.72;36.45;38.90;;
70077;Laerm;57448;51.490;5.436;2022-07-12T00:17:54;37.42;36.34;38.51;;
70077;Laerm;57448;51.490;5.436;2022-07-12T00:17:59;37.54;36.65;38.48;;
70077;Laerm;57448;51.490;5.436;2022-07-12T00:18:04;37.80;36.51;38.71;;
70077;Laerm;57448;51.490;5.436;2022-07-12T00:18:10;37.72;36.31;40.34;;
70077;Laerm;57448;51.490;5.436;2022-07-12T00:18:15;37.33;36.35;38.66;;
70077;Laerm;57448;51.490;5.436;2022-07-12T00:18:21;37.55;36.68;38.48;;
70077;Laerm;57448;51.490;5.436;2022-07-12T00:18:26;37.63;36.25;38.94;;
70077;Laerm;57448;51.490;5.436;2022-07-12T00:18:31;37.34;36.04;38.88;;
70077;Laerm;57448;51.490;5.436;2022-07-12T00:18:37;37.28;36.05;38.95;;
70077;Laerm;57448;51.490;5.436;2022-07-12T00:18:42;37.97;36.21;39.90;;
70077;Laerm;57448;51.490;5.436;2022-07-12T00:18:47;37.27;36.12;38.19;;
70077;Laerm;57448;51.490;5.436;2022-07-12T00:18:53;37.21;36.05;38.04;;
70077;Laerm;57448;51.490;5.436;2022-07-12T00:18:59;37.64;36.33;39.20;;
70077;Laerm;57448;51.490;5.436;2022-07-12T00:19:04;37.97;36.24;38.95;;
70077;Laerm;57448;51.490;5.436;2022-07-12T00:19:10;37.33;36.16;38.30;;
70077;Laerm;57448;51.490;5.436;2022-07-12T00:19:15;37.30;36.15;39.02;;
70077;Laerm;57448;51.490;5.436;2022-07-12T00:19:21;38.19;36.47;39.87;;
70077;Laerm;57448;51.490;5.436;2022-07-12T00:19:26;37.64;36.03;39.28;;
70077;Laerm;57448;51.490;5.436;2022-07-12T00:19:31;37.80;36.18;39.33;;
70077;Laerm;57448;51.490;5.436;2022-07-12T00:19:37;38.03;36.58;40.07;;
70077;Laerm;57448;51.490;5.436;2022-07-12T00:19:43;38.99;37.33;41.96;;
70077;Laerm;57448;51.490;5.436;2022-07-12T00:19:48;37.93;36.64;39.94;;
70077;Laerm;57448;51.490;5.436;2022-07-12T00:19:54;37.87;36.40;39.46;;
70077;Laerm;57448;51.490;5.436;2022-07-12T00:19:59;38.31;36.91;40.14;;
70077;Laerm;57448;51.490;5.436;2022-07-12T00:20:05;38.74;37.40;40.35;;
70077;Laerm;57448;51.490;5.436;2022-07-12T00:20:11;38.33;36.83;39.61;;
70077;Laerm;57448;51.490;5.436;2022-07-12T00:20:16;38.55;37.13;40.08;;
70077;Laerm;57448;51.490;5.436;2022-07-12T00:20:21;38.39;36.66;40.35;;
70077;Laerm;57448;51.490;5.436;2022-07-12T00:20:27;37.84;36.80;39.33;;
70077;Laerm;57448;51.490;5.436;2022-07-12T00:20:34;38.11;37.07;39.47;;
70077;Laerm;57448;51.490;5.436;2022-07-12T00:20:39;38.11;36.61;39.47;;
70077;Laerm;57448;51.490;5.436;2022-07-12T00:20:45;38.41;37.30;42.14;;
70077;Laerm;57448;51.490;5.436;2022-07-12T00:20:51;37.92;36.98;38.97;;
70077;Laerm;57448;51.490;5.436;2022-07-12T00:20:56;37.51;36.55;38.90;;
70077;Laerm;57448;51.490;5.436;2022-07-12T00:21:01;37.55;36.28;39.04;;
70077;Laerm;57448;51.490;5.436;2022-07-12T00:21:07;37.56;36.11;38.92;;
70077;Laerm;57448;51.490;5.436;2022-07-12T00:21:12;37.63;36.41;38.90;;
70077;Laerm;57448;51.490;5.436;2022-07-12T00:21:18;37.88;36.69;39.25;;
70077;Laerm;57448;51.490;5.436;2022-07-12T00:21:23;37.90;36.69;40.09;;
70077;Laerm;57448;51.490;5.436;2022-07-12T00:21:28;38.80;37.54;41.05;;
70077;Laerm;57448;51.490;5.436;2022-07-12T00:21:34;38.29;36.70;40.18;;
70077;Laerm;57448;51.490;5.436;2022-07-12T00:21:39;38.47;36.87;39.69;;
70077;Laerm;57448;51.490;5.436;2022-07-12T00:21:45;37.44;36.56;39.55;;
70077;Laerm;57448;51.490;5.436;2022-07-12T00:21:50;37.35;36.34;38.81;;
70077;Laerm;57448;51.490;5.436;2022-07-12T00:21:55;37.70;36.69;38.49;;
70077;Laerm;57448;51.490;5.436;2022-07-12T00:22:01;37.92;36.66;39.76;;
70077;Laerm;57448;51.490;5.436;2022-07-12T00:22:06;38.71;37.09;40.73;;
70077;Laerm;57448;51.490;5.436;2022-07-12T00:22:13;37.45;36.38;38.82;;
70077;Laerm;57448;51.490;5.436;2022-07-12T00:22:18;37.68;36.00;39.61;;
70077;Laerm;57448;51.490;5.436;2022-07-12T00:22:23;37.74;36.49;39.41;;
70077;Laerm;57448;51.490;5.436;2022-07-12T00:22:29;38.28;36.32;40.95;;
70077;Laerm;57448;51.490;5.436;2022-07-12T00:22:35;38.01;36.51;39.71;;
70077;Laerm;57448;51.490;5.436;2022-07-12T00:22:40;37.58;36.41;38.69;;
70077;Laerm;57448;51.490;5.436;2022-07-12T00:22:45;37.81;36.56;39.08;;
70077;Laerm;57448;51.490;5.436;2022-07-12T00:22:51;37.82;36.55;39.02;;
70077;Laerm;57448;51.490;5.436;2022-07-12T00:22:56;38.84;36.68;40.48;;
70077;Laerm;57448;51.490;5.436;2022-07-12T00:23:02;38.45;37.12;40.22;;
70077;Laerm;57448;51.490;5.436;2022-07-12T00:23:07;38.18;36.77;42.80;;
70077;Laerm;57448;51.490;5.436;2022-07-12T00:23:13;37.99;36.85;39.08;;
70077;Laerm;57448;51.490;5.436;2022-07-12T00:23:18;38.46;36.51;40.37;;
70077;Laerm;57448;51.490;5.436;2022-07-12T00:23:23;37.47;36.12;38.65;;
70077;Laerm;57448;51.490;5.436;2022-07-12T00:23:29;37.30;36.08;38.47;;
70077;Laerm;57448;51.490;5.436;2022-07-12T00:23:34;37.42;36.23;38.35;;
70077;Laerm;57448;51.490;5.436;2022-07-12T00:23:40;37.15;35.82;38.41;;
70077;Laerm;57448;51.490;5.436;2022-07-12T00:23:45;37.18;35.97;38.24;;
70077;Laerm;57448;51.490;5.436;2022-07-12T00:23:50;37.30;36.09;38.49;;
70077;Laerm;57448;51.490;5.436;2022-07-12T00:23:57;37.44;36.40;38.39;;
70077;Laerm;57448;51.490;5.436;2022-07-12T00:24:02;37.57;36.14;38.75;;
70077;Laerm;57448;51.490;5.436;2022-07-12T00:24:08;37.88;36.35;40.87;;
70077;Laerm;57448;51.490;5.436;2022-07-12T00:24:14;38.16;36.26;40.03;;
70077;Laerm;57448;51.490;5.436;2022-07-12T00:24:19;38.51;37.14;39.61;;
70077;Laerm;57448;51.490;5.436;2022-07-12T00:24:25;38.09;36.72;39.71;;
70077;Laerm;57448;51.490;5.436;2022-07-12T00:24:30;39.50;37.07;41.91;;
70077;Laerm;57448;51.490;5.436;2022-07-12T00:24:36;38.28;36.90;39.72;;
70077;Laerm;57448;51.490;5.436;2022-07-12T00:24:41;37.81;36.05;38.89;;
70077;Laerm;57448;51.490;5.436;2022-07-12T00:24:46;37.86;36.16;39.29;;
70077;Laerm;57448;51.490;5.436;2022-07-12T00:24:52;38.14;36.12;39.48;;
70077;Laerm;57448;51.490;5.436;2022-07-12T00:24:57;37.92;36.46;39.07;;
70077;Laerm;57448;51.490;5.436;2022-07-12T00:25:03;38.77;37.15;40.46;;
70077;Laerm;57448;51.490;5.436;2022-07-12T00:25:08;37.81;36.27;38.98;;
70077;Laerm;57448;51.490;5.436;2022-07-12T00:25:14;37.43;36.21;38.59;;
70077;Laerm;57448;51.490;5.436;2022-07-12T00:25:19;37.30;36.17;38.37;;
70077;Laerm;57448;51.490;5.436;2022-07-12T00:25:26;37.28;36.49;38.37;;
70077;Laerm;57448;51.490;5.436;2022-07-12T00:25:31;37.43;36.45;38.44;;
70077;Laerm;57448;51.490;5.436;2022-07-12T00:25:37;37.69;36.45;38.95;;
70077;Laerm;57448;51.490;5.436;2022-07-12T00:25:42;37.24;36.11;38.12;;
70077;Laerm;57448;51.490;5.436;2022-07-12T00:25:47;37.49;36.20;38.99;;
70077;Laerm;57448;51.490;5.436;2022-07-12T00:25:53;37.26;35.90;38.23;;
70077;Laerm;57448;51.490;5.436;2022-07-12T00:25:58;37.34;36.25;38.54;;
70077;Laerm;57448;51.490;5.436;2022-07-12T00:26:07;37.68;36.25;41.49;;
70077;Laerm;57448;51.490;5.436;2022-07-12T00:26:12;37.28;36.21;38.71;;
70077;Laerm;57448;51.490;5.436;2022-07-12T00:26:18;37.46;36.53;38.39;;
70077;Laerm;57448;51.490;5.436;2022-07-12T00:26:23;38.07;36.83;39.43;;
70077;Laerm;57448;51.490;5.436;2022-07-12T00:26:28;37.31;36.27;38.50;;
70077;Laerm;57448;51.490;5.436;2022-07-12T00:26:34;37.33;36.25;38.30;;
70077;Laerm;57448;51.490;5.436;2022-07-12T00:26:40;37.63;36.42;38.71;;
70077;Laerm;57448;51.490;5.436;2022-07-12T00:26:46;37.16;36.11;38.03;;
70077;Laerm;57448;51.490;5.436;2022-07-12T00:26:51;37.16;36.23;38.19;;
70077;Laerm;57448;51.490;5.436;2022-07-12T00:26:57;37.54;36.35;39.05;;
70077;Laerm;57448;51.490;5.436;2022-07-12T00:27:03;37.26;36.22;38.37;;
70077;Laerm;57448;51.490;5.436;2022-07-12T00:27:08;37.05;36.25;38.09;;
70077;Laerm;57448;51.490;5.436;2022-07-12T00:27:13;36.99;36.07;37.97;;
70077;Laerm;57448;51.490;5.436;2022-07-12T00:27:19;36.91;35.55;37.99;;
70077;Laerm;57448;51.490;5.436;2022-07-12T00:27:24;37.00;35.97;38.04;;
70077;Laerm;57448;51.490;5.436;2022-07-12T00:27:30;36.93;35.98;38.70;;
70077;Laerm;57448;51.490;5.436;2022-07-12T00:27:35;37.48;35.99;39.00;;
70077;Laerm;57448;51.490;5.436;2022-07-12T00:27:41;36.99;35.88;38.12;;
70077;Laerm;57448;51.490;5.436;2022-07-12T00:27:46;37.32;36.07;38.33;;
70077;Laerm;57448;51.490;5.436;2022-07-12T00:27:52;37.12;35.96;39.03;;
70077;Laerm;57448;51.490;5.436;2022-07-12T00:27:57;36.90;35.47;37.99;;
70077;Laerm;57448;51.490;5.436;2022-07-12T00:28:03;37.04;35.89;38.22;;
70077;Laerm;57448;51.490;5.436;2022-07-12T00:28:08;37.51;36.50;38.74;;
70077;Laerm;57448;51.490;5.436;2022-07-12T00:28:14;37.57;36.44;39.17;;
70077;Laerm;57448;51.490;5.436;2022-07-12T00:28:20;38.56;36.95;45.76;;
70077;Laerm;57448;51.490;5.436;2022-07-12T00:28:25;37.50;36.43;38.38;;
70077;Laerm;57448;51.490;5.436;2022-07-12T00:28:31;37.67;36.67;38.96;;
70077;Laerm;57448;51.490;5.436;2022-07-12T00:28:36;37.37;36.28;38.51;;
70077;Laerm;57448;51.490;5.436;2022-07-12T00:28:42;37.74;36.54;39.13;;
70077;Laerm;57448;51.490;5.436;2022-07-12T00:28:48;37.74;36.60;38.61;;
70077;Laerm;57448;51.490;5.436;2022-07-12T00:28:53;37.63;36.09;38.51;;
70077;Laerm;57448;51.490;5.436;2022-07-12T00:28:58;37.49;36.26;38.29;;
70077;Laerm;57448;51.490;5.436;2022-07-12T00:29:04;38.15;36.91;39.56;;
70077;Laerm;57448;51.490;5.436;2022-07-12T00:29:09;37.67;36.58;38.80;;
70077;Laerm;57448;51.490;5.436;2022-07-12T00:29:15;37.77;36.63;39.62;;
70077;Laerm;57448;51.490;5.436;2022-07-12T00:29:20;37.60;36.40;38.72;;
70077;Laerm;57448;51.490;5.436;2022-07-12T00:29:27;37.92;36.47;39.34;;
70077;Laerm;57448;51.490;5.436;2022-07-12T00:29:32;37.80;36.74;39.29;;
70077;Laerm;57448;51.490;5.436;2022-07-12T00:29:37;38.06;36.57;39.63;;
70077;Laerm;57448;51.490;5.436;2022-07-12T00:29:44;37.82;36.66;38.87;;
70077;Laerm;57448;51.490;5.436;2022-07-12T00:29:49;38.24;36.95;39.55;;
70077;Laerm;57448;51.490;5.436;2022-07-12T00:29:55;38.12;36.95;39.80;;
70077;Laerm;57448;51.490;5.436;2022-07-12T00:30:00;37.50;36.33;38.75;;
70077;Laerm;57448;51.490;5.436;2022-07-12T00:30:06;37.53;36.41;38.83;;
70077;Laerm;57448;51.490;5.436;2022-07-12T00:30:12;37.80;36.47;39.44;;
70077;Laerm;57448;51.490;5.436;2022-07-12T00:30:18;38.15;36.47;39.85;;
70077;Laerm;57448;51.490;5.436;2022-07-12T00:30:23;37.48;36.26;38.66;;
70077;Laerm;57448;51.490;5.436;2022-07-12T00:30:29;37.22;36.06;38.26;;
70077;Laerm;57448;51.490;5.436;2022-07-12T00:30:34;37.67;36.58;39.03;;
70077;Laerm;57448;51.490;5.436;2022-07-12T00:30:39;37.98;36.56;38.89;;
70077;Laerm;57448;51.490;5.436;2022-07-12T00:30:45;37.87;36.83;39.00;;
70077;Laerm;57448;51.490;5.436;2022-07-12T00:30:50;37.50;36.46;39.04;;
70077;Laerm;57448;51.490;5.436;2022-07-12T00:30:56;37.90;36.93;40.52;;
70077;Laerm;57448;51.490;5.436;2022-07-12T00:31:02;37.50;36.46;38.78;;
70077;Laerm;57448;51.490;5.436;2022-07-12T00:31:08;37.45;35.72;40.19;;